Surface/Precipitation History
12/21/2014 18:34  to  12/22/2014 18:34
Change End Date:
Date/Time
(MST)
Sf
Temp Chem Water Layer Surface Precipitation
Sf Sub Frz Factor Pct Depth IcePct Cond Salin Type Intens Accum Rate
12/22/2014 18:21 Ice Warning 27.0F 31F 32F 55 0% - 99% 1 mhos 60 Yes - - -
12/22/2014 18:18 Ice Warning 27.0F 31F 32F 50 0% - 99% 1 mhos 60 Yes - - -
12/22/2014 18:08 Ice Warning 26.6F 31F 32F 55 0% - 99% 1 mhos 61 Yes - - -
12/22/2014 17:58 Ice Warning 26.8F 31F 32F 70 0% - 99% 1 mhos 60 Yes - - -
12/22/2014 17:57 Ice Warning 26.8F 31F 32F 70 0% - 99% 1 mhos 60 Yes - - -
12/22/2014 17:48 Ice Warning 26.6F 31F 32F 70 0% - 99% 1 mhos 59 Yes - - -
12/22/2014 17:38 Ice Warning 26.4F 31F 32F 70 0% - 99% 1 mhos 59 Yes - - -
12/22/2014 17:27 Ice Warning 26.1F 31F 32F 65 0% - 99% 1 mhos 58 Yes - - -
12/22/2014 17:22 Ice Warning 26.2F 31F 32F 65 0% - 99% 1 mhos 58 Yes - - -
12/22/2014 17:17 Ice Warning 26.2F 31F 32F 65 0% - 99% 0 mhos 57 Yes - - -
12/22/2014 17:07 Ice Warning 26.4F 31F 32F 65 0% - 99% 0 mhos 55 Yes - - -
12/22/2014 16:57 Ice Warning 26.8F 31F 32F 70 0% - 99% 0 mhos 53 Yes - - -
12/22/2014 16:54 Ice Warning 27.0F 31F 32F 60 0% - 99% 0 mhos 53 Yes - - -
12/22/2014 16:47 Ice Warning 27.3F 31F 32F 65 0% - 99% 0 mhos 51 None None - -
12/22/2014 16:37 Ice Warning 28.0F 31F 32F 70 0% - 99% 0 mhos 47 None None - -
Date/Time
(MST)
Sf
Temp Chem Water Layer Surface Precipitation
Sf Sub Frz Factor Pct Depth IcePct Cond Salin Type Intens Accum Rate
12/22/2014 16:27 Ice Warning 28.8F 31F 32F 65 0% - 99% 0 mhos 45 None None - -
12/22/2014 16:25 Ice Warning 29.1F 31F 32F 60 0% - 99% 0 mhos 44 None None - -
12/22/2014 16:17 Ice Warning 29.8F 31F 32F 60 0% - 98% 0 mhos 41 None None - -
12/22/2014 16:07 Ice Warning 30.9F 31F 32F 55 0% - 97% 0 mhos 36 None None - -
12/22/2014 15:57 Ice Warning 31.5F 31F 32F 55 0% - 92% 0 mhos 36 None None - -
12/22/2014 15:54 Chemically Wet 31.8F 31F 32F 55 0% - 75% 0 mhos 35 None None - -
12/22/2014 15:47 Wet 32.7F 31F 32F 60 0% 0.00 in 0% 0 mhos 35 None None - -
12/22/2014 15:39 Wet 33.6F 31F 32F 65 0% 0.00 in 0% 0 mhos 37 None None - -
12/22/2014 15:37 Wet 33.6F 31F 32F 60 0% 0.00 in 0% 0 mhos 37 None None - -
12/22/2014 15:27 Wet 33.8F 31F 32F 65 0% 0.00 in 0% 0 mhos 40 None None - -
12/22/2014 15:21 Wet 35.4F 31F 32F 45 0% 0.00 in 0% 0 mhos 43 None None - -
12/22/2014 15:17 Wet 36.7F 31F 32F 60 0% 0.00 in 0% 0 mhos 47 None None - -
12/22/2014 15:07 Wet 36.7F 31F 32F 95 0% 0.00 in 0% 1 mhos 60 None None - -
12/22/2014 14:57 Wet 36.5F 31F 32F 95 0% 0.00 in 0% 1 mhos 74 None None - -
12/22/2014 14:57 Wet 36.5F 31F 32F 95 0% 0.00 in 0% 1 mhos 74 None None - -
Date/Time
(MST)
Sf
Temp Chem Water Layer Surface Precipitation
Sf Sub Frz Factor Pct Depth IcePct Cond Salin Type Intens Accum Rate
12/22/2014 14:47 Wet 38.7F 31F 32F 90 0% 0.00 in 0% 1 mhos 82 None None - -
12/22/2014 14:37 Wet 38.8F 31F 32F 95 0% 0.00 in 0% 1 mhos 90 None None - -
12/22/2014 14:27 Wet 41.2F 31F 32F 95 0% 0.00 in 0% 1 mhos 100 None None - -
12/22/2014 14:27 Wet 41.2F 31F 32F 95 0% 0.00 in 0% 1 mhos 100 None None - -
12/22/2014 14:17 Wet 38.3F 31F 32F 95 0% 0.00 in 0% 1 mhos 129 None None - -
12/22/2014 14:07 Wet 36.3F 31F 32F 95 1% 0.00 in 0% 2 mhos 165 None None - -
12/22/2014 13:57 Wet 37.2F 31F 32F 95 2% 0.00 in 0% 4 mhos 408 None None - -
12/22/2014 13:54 Wet 38.8F 31F 31F 95 2% 0.00 in 0% 5 mhos 447 None None - -
12/22/2014 13:47 Wet 39.6F 31F 31F 95 2% 0.00 in 0% 5 mhos 499 None None - -
12/22/2014 13:37 Wet 35.4F 31F 31F 95 2% 0.00 in 0% 6 mhos 592 None None - -
12/22/2014 13:27 Wet 35.1F 31F 31F 95 2% 0.00 in 0% 6 mhos 612 None None - -
12/22/2014 13:22 Wet 34.5F 31F 31F 95 2% 0.00 in 0% 6 mhos 620 None None - -
12/22/2014 13:17 Wet 33.4F 31F 31F 95 3% 0.00 in 0% 6 mhos 654 None None - -
12/22/2014 13:07 Wet 33.1F 31F 31F 95 3% 0.00 in 0% 6 mhos 689 None None - -
12/22/2014 12:56 Wet 33.8F 31F 31F 95 3% 0.00 in 0% 6 mhos 656 None None - -
Date/Time
(MST)
Sf
Temp Chem Water Layer Surface Precipitation
Sf Sub Frz Factor Pct Depth IcePct Cond Salin Type Intens Accum Rate
12/22/2014 12:53 Wet 34.3F 31F 31F 95 3% 0.00 in 0% 7 mhos 697 None None - -
12/22/2014 12:46 Wet 34.5F 31F 31F 95 3% 0.00 in 0% 7 mhos 704 None None - -
12/22/2014 12:36 Wet 34.2F 31F 31F 95 3% 0.00 in 0% 7 mhos 682 Yes - - -
12/22/2014 12:26 Wet 34.3F 31F 31F 95 2% 0.00 in 0% 6 mhos 610 Yes - - -
12/22/2014 12:23 Wet 34.5F 31F 31F 95 2% 0.00 in 0% 6 mhos 602 None None - -
12/22/2014 12:16 Wet 34.9F 31F 31F 95 2% 0.00 in 0% 6 mhos 584 None None - -
12/22/2014 12:06 Wet 36.1F 31F 31F 95 2% 0.00 in 0% 5 mhos 546 None None - -
12/22/2014 11:56 Wet 35.4F 31F 31F 95 3% 0.00 in 0% 8 mhos 826 Yes - - -
12/22/2014 11:55 Wet 34.5F 31F 31F 95 3% 0.00 in 0% 8 mhos 826 Yes - - -
12/22/2014 11:46 Wet 34.0F 31F 31F 95 3% 0.00 in 0% 8 mhos 794 Yes - - -
12/22/2014 11:36 Wet 33.1F 31F 31F 95 3% 0.00 in 0% 7 mhos 694 Yes - - -
12/22/2014 11:26 Wet 33.3F 31F 31F 95 3% 0.00 in 0% 6 mhos 655 None None - -
12/22/2014 11:26 Wet 33.6F 31F 31F 95 3% 0.00 in 0% 7 mhos 698 None None - -
12/22/2014 11:16 Wet 33.4F 31F 31F 95 3% 0.10 in 0% 7 mhos 772 Yes - - -
12/22/2014 11:06 Wet 32.7F 31F 31F 95 3% 0.00 in 0% 7 mhos 794 Yes - - -
Date/Time
(MST)
Sf
Temp Chem Water Layer Surface Precipitation
Sf Sub Frz Factor Pct Depth IcePct Cond Salin Type Intens Accum Rate
12/22/2014 10:56 Chemically Wet 32.0F 31F 32F 95 0% 0.10 in 0% 1 mhos 74 Yes - - -
12/22/2014 10:46 Ice Warning 31.5F 31F 32F 95 0% - 89% 1 mhos 67 Yes - - -
12/22/2014 10:36 Ice Warning 30.9F 31F 32F 95 0% - 95% 1 mhos 55 Yes - - -
12/22/2014 10:26 Ice Warning 30.6F 31F 32F 95 0% - 97% 0 mhos 41 Yes - - -
12/22/2014 10:22 Ice Warning 30.2F 31F 32F 95 0% - 98% 0 mhos 37 Yes - - -
12/22/2014 10:16 Ice Warning 29.8F 31F 32F 95 0% - 99% 0 mhos 32 Yes - - -
12/22/2014 10:06 Ice Warning 29.7F 31F 32F 95 0% - 99% 0 mhos 28 Yes - - -
12/22/2014 09:57 Ice Warning 29.3F 31F 32F 95 0% - 99% 0 mhos 24 Yes - - -
12/22/2014 09:56 Ice Warning 29.3F 31F 32F 95 0% - 99% 0 mhos 24 Yes - - -
12/22/2014 09:46 Ice Warning 29.1F 31F 32F 95 0% - 100% 0 mhos 12 Yes - - -
12/22/2014 09:36 Ice Warning 28.2F 31F 32F 95 0% - 100% 0 mhos 12 Yes - - -
12/22/2014 09:30 Ice Warning 27.9F 31F 32F 75 0% - 100% 0 mhos 9 Yes - - -
12/22/2014 09:26 Ice Warning 27.5F 31F 32F 75 0% - 100% 0 mhos 9 Yes - - -
12/22/2014 09:16 Ice Warning 27.3F 31F 32F 70 0% - 100% 0 mhos 9 Yes - - -
12/22/2014 09:06 Ice Warning 27.0F 31F 32F 55 0% - 100% 0 mhos 10 Yes - - -
Date/Time
(MST)
Sf
Temp Chem Water Layer Surface Precipitation
Sf Sub Frz Factor Pct Depth IcePct Cond Salin Type Intens Accum Rate
12/22/2014 08:56 Ice Warning 27.0F 31F 32F 50 0% - 100% 0 mhos 10 Yes - - -
12/22/2014 08:52 Ice Warning 27.3F 31F 32F 45 0% - 100% 0 mhos 10 Yes - - -
12/22/2014 08:46 Ice Warning 27.5F 31F 32F 50 0% - 100% 0 mhos 9 Yes - - -
12/22/2014 08:36 Ice Warning 28.0F 31F 32F 40 0% - 100% 0 mhos 9 Yes - - -
12/22/2014 08:33 Ice Warning 28.0F 31F 32F 40 0% - 100% 0 mhos 9 Yes - - -
12/22/2014 08:26 Ice Warning 27.9F 31F 32F 25 0% - 100% 0 mhos 9 Yes - - -
12/22/2014 08:21 Ice Warning 27.7F 31F 32F 25 0% - 100% 0 mhos 9 Yes - - -
12/22/2014 08:16 Ice Warning 27.7F 31F 32F 25 0% - 100% 0 mhos 9 Yes - - -
12/22/2014 08:06 Ice Warning 27.9F 31F 32F 25 0% - 100% 0 mhos 9 Yes - - -
12/22/2014 07:56 Ice Warning 27.7F 31F 32F 15 0% - 100% 0 mhos 9 Yes - - -
12/22/2014 07:52 Ice Warning 27.9F 31F 32F 15 0% - 100% 0 mhos 9 Yes - - -
12/22/2014 07:46 Ice Warning 27.9F 31F 32F 15 0% - 100% 0 mhos 9 Yes - - -
12/22/2014 07:38 Ice Warning 27.7F 31F 32F 15 0% - 100% 0 mhos 9 Yes - - -
12/22/2014 07:36 Ice Warning 27.7F 31F 32F 15 0% - 100% 0 mhos 9 Yes - - -
12/22/2014 07:27 Ice Warning 27.7F 31F 32F 15 0% - 100% 0 mhos 9 Yes - - -
Date/Time
(MST)
Sf
Temp Chem Water Layer Surface Precipitation
Sf Sub Frz Factor Pct Depth IcePct Cond Salin Type Intens Accum Rate
12/22/2014 07:26 Ice Warning 27.5F 31F 32F 15 0% - 100% 0 mhos 9 Yes - - -
12/22/2014 07:15 Ice Warning 27.1F 31F 32F 15 0% - 100% 0 mhos 9 Yes - - -
12/22/2014 07:05 Ice Warning 27.3F 31F 32F 15 0% - 100% 0 mhos 9 Yes - - -
12/22/2014 06:55 Ice Warning 27.5F 31F 32F 15 0% - 100% 0 mhos 9 Yes - - -
12/22/2014 06:51 Ice Warning 27.3F 31F 32F 15 0% - 100% 0 mhos 9 Yes - - -
12/22/2014 06:45 Ice Warning 27.1F 31F 32F 15 0% - 100% 0 mhos 9 Yes - - -
12/22/2014 06:35 Ice Warning 27.1F 31F 32F 15 0% - 100% 0 mhos 9 Yes - - -
12/22/2014 06:25 Ice Warning 27.1F 31F 32F 10 0% - 100% 0 mhos 9 Yes - - -
12/22/2014 06:22 Ice Warning 27.5F 31F 32F 10 0% - 100% 0 mhos 9 Yes - - -
12/22/2014 06:15 Ice Warning 28.2F 31F 32F 15 0% - 100% 0 mhos 8 Yes - - -
12/22/2014 06:05 Ice Warning 28.4F 31F 32F 20 0% - 100% 0 mhos 9 Yes - - -
12/22/2014 05:55 Ice Warning 28.0F 31F 32F 15 0% - 100% 0 mhos 9 Yes - - -
12/22/2014 05:52 Ice Warning 28.0F 31F 32F 15 0% - 100% 0 mhos 9 Yes - - -
12/22/2014 05:45 Ice Warning 28.0F 31F 32F 20 0% - 100% 0 mhos 9 Yes - - -
12/22/2014 05:35 Ice Warning 28.0F 31F 32F 20 0% - 100% 0 mhos 9 Yes - - -
Date/Time
(MST)
Sf
Temp Chem Water Layer Surface Precipitation
Sf Sub Frz Factor Pct Depth IcePct Cond Salin Type Intens Accum Rate
12/22/2014 05:27 Ice Warning 27.9F 31F 32F 20 0% - 100% 0 mhos 9 Yes - - -
12/22/2014 05:25 Ice Warning 27.9F 31F 32F 15 0% - 100% 0 mhos 9 Yes - - -
12/22/2014 05:15 Ice Warning 27.7F 31F 32F 20 0% - 100% 0 mhos 9 Yes - - -
12/22/2014 05:05 Ice Warning 27.5F 31F 32F 20 0% - 100% 0 mhos 9 Yes - - -
12/22/2014 04:56 Ice Warning 27.5F 31F 32F 15 0% - 100% 0 mhos 10 Yes - - -
12/22/2014 04:55 Ice Warning 27.5F 31F 32F 15 0% - 100% 0 mhos 9 Yes - - -
12/22/2014 04:45 Ice Warning 27.3F 31F 32F 15 0% - 100% 0 mhos 10 Yes - - -
12/22/2014 04:35 Ice Warning 27.3F 31F 32F 20 0% - 100% 0 mhos 9 Yes - - -
12/22/2014 04:27 Ice Warning 27.3F 31F 32F 15 0% - 100% 0 mhos 10 Yes - - -
12/22/2014 04:25 Ice Warning 27.3F 31F 32F 20 0% - 100% 0 mhos 10 Yes - - -
12/22/2014 04:15 Ice Warning 27.3F 31F 32F 20 0% - 100% 0 mhos 10 Yes - - -
12/22/2014 04:05 Ice Warning 26.8F 31F 32F 20 0% - 100% 0 mhos 10 Yes - - -
12/22/2014 03:56 Ice Warning 26.2F 31F 32F 15 0% - 100% 0 mhos 12 Yes - - -
12/22/2014 03:55 Ice Warning 26.2F 31F 32F 15 0% - 100% 0 mhos 12 Yes - - -
12/22/2014 03:45 Ice Warning 26.1F 31F 32F 15 0% - 100% 0 mhos 12 Yes - - -
Date/Time
(MST)
Sf
Temp Chem Water Layer Surface Precipitation
Sf Sub Frz Factor Pct Depth IcePct Cond Salin Type Intens Accum Rate
12/22/2014 03:35 Ice Warning 26.1F 31F 32F 15 0% - 100% 0 mhos 12 Yes - - -
12/22/2014 03:25 Ice Warning 26.2F 31F 32F 15 0% - 100% 0 mhos 12 Yes - - -
12/22/2014 03:22 Ice Warning 26.2F 31F 32F 15 0% - 100% 0 mhos 12 Yes - - -
12/22/2014 03:14 Ice Warning 26.2F 31F 32F 15 0% - 100% 0 mhos 12 Yes - - -
12/22/2014 03:06 Ice Warning 26.4F 31F 32F 15 0% - 100% 0 mhos 12 Yes - - -
12/22/2014 03:04 Ice Warning 26.6F 31F 32F 15 0% - 100% 0 mhos 12 Yes - - -
12/22/2014 02:54 Ice Warning 27.0F 31F 32F 15 0% - 100% 0 mhos 10 Yes - - -
12/22/2014 02:54 Ice Warning 27.0F 31F 32F 15 0% - 100% 0 mhos 10 Yes - - -
12/22/2014 02:44 Ice Warning 27.5F 31F 32F 20 0% - 100% 0 mhos 10 Yes - - -
12/22/2014 02:34 Ice Warning 28.4F 31F 32F 20 0% - 100% 0 mhos 10 Yes - - -
12/22/2014 02:24 Ice Warning 28.4F 31F 32F 25 0% - 100% 0 mhos 10 Yes - - -
12/22/2014 02:22 Ice Warning 28.2F 31F 32F 25 0% - 100% 0 mhos 10 Yes - - -
12/22/2014 02:14 Ice Warning 28.0F 31F 32F 25 0% - 100% 0 mhos 10 Yes - - -
12/22/2014 02:04 Ice Warning 28.8F 31F 32F 25 0% - 100% 0 mhos 9 Yes - - -
12/22/2014 01:54 Ice Warning 29.8F 31F 32F 30 0% - 100% 0 mhos 9 Yes - - -
Date/Time
(MST)
Sf
Temp Chem Water Layer Surface Precipitation
Sf Sub Frz Factor Pct Depth IcePct Cond Salin Type Intens Accum Rate
12/22/2014 01:54 Ice Warning 29.8F 31F 32F 30 0% - 100% 0 mhos 9 Yes - - -
12/22/2014 01:44 Ice Warning 30.0F 31F 32F 35 0% - 99% 0 mhos 22 Yes - - -
12/22/2014 01:34 Ice Warning 29.7F 31F 32F 45 0% - 98% 0 mhos 39 Yes - - -
12/22/2014 01:24 Ice Warning 29.3F 31F 32F 40 0% - 99% 0 mhos 37 Yes - - -
12/22/2014 01:24 Ice Warning 29.3F 31F 32F 40 0% - 99% 0 mhos 37 Yes - - -
12/22/2014 01:14 Ice Warning 28.6F 31F 32F 35 0% - 99% 0 mhos 37 Yes - - -
12/22/2014 01:04 Ice Warning 28.9F 31F 32F 35 0% - 99% 0 mhos 37 Yes - - -
12/22/2014 00:54 Ice Warning 29.1F 31F 32F 35 0% - 99% 0 mhos 37 Yes - - -
12/22/2014 00:51 Ice Warning 29.1F 31F 32F 40 0% - 99% 0 mhos 37 Yes - - -
12/22/2014 00:44 Ice Warning 29.1F 31F 32F 40 0% - 99% 0 mhos 37 Yes - - -
12/22/2014 00:34 Ice Warning 29.1F 31F 32F 40 0% - 99% 0 mhos 37 None None - -
12/22/2014 00:25 Ice Warning 29.1F 31F 32F 40 0% - 99% 0 mhos 37 Yes - - -
12/22/2014 00:24 Ice Warning 29.1F 31F 32F 35 0% - 99% 0 mhos 37 None None - -
12/22/2014 00:14 Ice Warning 29.1F 31F 32F 40 0% - 99% 0 mhos 37 Yes - - -
12/22/2014 00:04 Ice Warning 29.1F 31F 32F 40 0% - 99% 0 mhos 37 Yes - - -
Date/Time
(MST)
Sf
Temp Chem Water Layer Surface Precipitation
Sf Sub Frz Factor Pct Depth IcePct Cond Salin Type Intens Accum Rate
12/22/2014 00:01 Ice Warning 29.1F 31F 32F 35 0% - 99% 0 mhos 37 Yes - - -
12/21/2014 23:58 Ice Warning 29.1F 31F 32F 35 0% - 99% 0 mhos 37 None None - -
12/21/2014 23:54 Ice Warning 29.3F 31F 32F 40 0% - 99% 0 mhos 37 None None - -
12/21/2014 23:44 Ice Warning 29.3F 31F 32F 40 0% - 99% 0 mhos 37 Yes - - -
12/21/2014 23:34 Ice Warning 29.1F 31F 32F 40 0% - 99% 0 mhos 37 Yes - - -
12/21/2014 23:24 Ice Warning 29.1F 31F 32F 40 0% - 99% 0 mhos 37 Yes - - -
12/21/2014 23:23 Ice Warning 29.1F 31F 32F 40 0% - 99% 0 mhos 37 Yes - - -
12/21/2014 23:14 Ice Warning 28.9F 31F 32F 35 0% - 99% 0 mhos 37 Yes - - -
12/21/2014 23:04 Ice Warning 28.9F 31F 32F 40 0% - 99% 0 mhos 37 Yes - - -
12/21/2014 22:54 Ice Warning 28.9F 31F 32F 45 0% - 99% 0 mhos 37 Yes - - -
12/21/2014 22:51 Ice Warning 28.9F 31F 32F 45 0% - 99% 0 mhos 37 Yes - - -
12/21/2014 22:44 Ice Warning 28.9F 31F 32F 35 0% - 99% 0 mhos 37 Yes - - -
12/21/2014 22:36 Ice Warning 28.9F 31F 32F 40 0% - 99% 0 mhos 37 Yes - - -
12/21/2014 22:34 Ice Warning 28.9F 31F 32F 40 0% - 99% 0 mhos 37 Yes - - -
12/21/2014 22:24 Ice Warning 28.9F 31F 32F 40 0% - 99% 0 mhos 37 Yes - - -
Date/Time
(MST)
Sf
Temp Chem Water Layer Surface Precipitation
Sf Sub Frz Factor Pct Depth IcePct Cond Salin Type Intens Accum Rate
12/21/2014 22:23 Ice Warning 28.9F 31F 32F 40 0% - 99% 0 mhos 37 Yes - - -
12/21/2014 22:13 Ice Warning 28.9F 31F 32F 40 0% - 99% 0 mhos 37 Yes - - -
12/21/2014 22:03 Ice Warning 28.9F 31F 32F 45 0% - 99% 0 mhos 37 Yes - - -
12/21/2014 21:55 Ice Warning 29.1F 31F 32F 45 0% - 99% 0 mhos 37 Yes - - -
12/21/2014 21:53 Ice Warning 29.1F 31F 32F 45 0% - 99% 0 mhos 37 Yes - - -
12/21/2014 21:43 Ice Warning 29.1F 31F 32F 40 0% - 99% 0 mhos 37 Yes - - -
12/21/2014 21:33 Ice Warning 28.9F 31F 32F 40 0% - 99% 0 mhos 38 Yes - - -
12/21/2014 21:23 Ice Warning 29.1F 31F 32F 45 0% - 99% 0 mhos 38 Yes - - -
12/21/2014 21:13 Ice Warning 29.1F 31F 32F 45 0% - 99% 0 mhos 38 Yes - - -
12/21/2014 21:03 Ice Warning 29.1F 31F 32F 45 0% - 99% 0 mhos 38 Yes - - -
12/21/2014 20:53 Ice Warning 29.1F 31F 32F 45 0% - 99% 0 mhos 38 Yes - - -
12/21/2014 20:51 Ice Warning 29.1F 31F 32F 45 0% - 99% 0 mhos 38 Yes - - -
12/21/2014 20:43 Ice Warning 29.1F 31F 32F 40 0% - 99% 0 mhos 38 Yes - - -
12/21/2014 20:33 Ice Warning 29.1F 31F 32F 50 0% - 99% 0 mhos 38 Yes - - -
12/21/2014 20:23 Ice Warning 29.1F 31F 32F 45 0% - 99% 0 mhos 38 Yes - - -
Date/Time
(MST)
Sf
Temp Chem Water Layer Surface Precipitation
Sf Sub Frz Factor Pct Depth IcePct Cond Salin Type Intens Accum Rate
12/21/2014 20:21 Ice Warning 29.1F 31F 32F 45 0% - 99% 0 mhos 38 Yes - - -
12/21/2014 20:13 Ice Warning 29.1F 31F 32F 40 0% - 99% 0 mhos 38 Yes - - -
12/21/2014 20:03 Ice Warning 29.1F 31F 32F 40 0% - 99% 0 mhos 38 Yes - - -
12/21/2014 19:53 Ice Warning 29.1F 31F 32F 40 0% - 99% 0 mhos 38 Yes - - -
12/21/2014 19:53 Ice Warning 29.1F 31F 32F 40 0% - 99% 0 mhos 38 Yes - - -
12/21/2014 19:43 Ice Warning 29.1F 31F 32F 45 0% - 99% 0 mhos 38 Yes - - -
12/21/2014 19:33 Ice Warning 29.1F 31F 32F 40 0% - 99% 0 mhos 38 Yes - - -
12/21/2014 19:23 Ice Warning 28.9F 31F 32F 45 0% - 99% 0 mhos 38 Yes - - -
12/21/2014 19:23 Ice Warning 28.9F 31F 32F 45 0% - 99% 0 mhos 38 Yes - - -
12/21/2014 19:13 Ice Warning 28.4F 31F 32F 45 0% - 99% 0 mhos 38 Yes - - -
12/21/2014 19:03 Ice Warning 28.6F 31F 32F 40 0% - 99% 0 mhos 38 Yes - - -
12/21/2014 18:57 Ice Warning 28.8F 31F 32F 45 0% - 99% 0 mhos 38 Yes - - -
12/21/2014 18:53 Ice Warning 28.8F 31F 32F 45 0% - 99% 0 mhos 38 Yes - - -
12/21/2014 18:43 Ice Warning 28.8F 31F 32F 45 0% - 99% 0 mhos 38 Yes - - -
Change End Date:
Copyright © 1998-2005 Surface Systems, Inc.
All Rights Reserved
Send comments about the data to:
SCAN Web ® is a registered trademark of Surface Systems, Inc.
SCAN Web Version 5.6